Time;durP1;ratioP1;P1;durP2;ratioP2;P2;SDS_P1;SDS_P2;PMS_P1;PMS_P2;Temp;Humidity;BMP_temperature;BMP_pressure;BME280_temperature;BME280_humidity;BME280_pressure;Samples;Min_cycle;Max_cycle;Signal;HPM_P1;HPM_P2
2021/03/09 00:02:09;;;;;;;4.85;1.00;;;36.50;45.90;;;;;;4877156;29;20410;-86
2021/03/09 00:04:36;;;;;;;8.37;1.10;;;36.80;49.00;;;;;;4876640;29;20403;-85
2021/03/09 00:07:03;;;;;;;4.83;1.10;;;36.80;49.10;;;;;;4882996;29;20451;-85
2021/03/09 00:09:30;;;;;;;8.65;1.40;;;36.50;42.30;;;;;;4875891;29;20407;-85
2021/03/09 00:11:57;;;;;;;9.30;1.30;;;36.20;46.50;;;;;;4876214;29;20925;-85
2021/03/09 00:14:24;;;;;;;8.48;1.60;;;36.30;45.30;;;;;;4878603;29;20442;-85
2021/03/09 00:16:51;;;;;;;6.63;1.13;;;36.50;48.30;;;;;;4886050;29;20469;-86
2021/03/09 00:19:17;;;;;;;5.90;1.10;;;36.00;48.30;;;;;;4891165;29;20469;-84
2021/03/09 00:21:44;;;;;;;8.30;1.02;;;36.00;50.30;;;;;;4892296;29;20401;-82
2021/03/09 00:24:12;;;;;;;6.43;1.10;;;36.40;46.20;;;;;;4884258;29;20428;-85
2021/03/09 00:26:38;;;;;;;3.45;0.90;;;36.40;44.20;;;;;;4877152;29;20403;-85
2021/03/09 00:29:05;;;;;;;4.28;1.13;;;36.00;48.80;;;;;;4887368;29;20421;-84
2021/03/09 00:31:32;;;;;;;8.02;1.23;;;36.30;48.60;;;;;;4868773;29;20411;-84
2021/03/09 00:33:59;;;;;;;3.85;0.90;;;36.20;49.30;;;;;;4870202;29;20477;-85
2021/03/09 00:36:26;;;;;;;3.42;1.00;;;36.30;45.40;;;;;;4875431;29;20415;-85
2021/03/09 00:38:53;;;;;;;4.97;1.20;;;36.20;47.70;;;;;;4874453;29;20418;-86
2021/03/09 00:41:20;;;;;;;5.80;1.20;;;36.20;47.10;;;;;;4875040;29;20768;-85
2021/03/09 00:43:47;;;;;;;3.45;1.13;;;36.40;46.60;;;;;;4875353;29;21208;-85
2021/03/09 00:46:14;;;;;;;5.05;1.05;;;35.90;48.00;;;;;;4875325;29;20403;-85
2021/03/09 00:48:42;;;;;;;3.13;1.00;;;36.00;41.70;;;;;;4876912;29;20418;-84
2021/03/09 00:51:09;;;;;;;4.00;1.20;;;35.90;45.80;;;;;;4875265;29;20417;-84
2021/03/09 00:53:37;;;;;;;5.75;1.23;;;35.30;43.70;;;;;;4876682;29;20478;-83
2021/03/09 00:56:04;;;;;;;5.07;1.40;;;34.70;46.70;;;;;;4875422;29;20462;-81
2021/03/09 00:58:31;;;;;;;3.63;1.00;;;34.40;46.70;;;;;;4875471;29;20421;-81
2021/03/09 01:00:58;;;;;;;6.13;1.43;;;34.00;48.30;;;;;;4875168;29;20827;-82
2021/03/09 01:03:25;;;;;;;5.57;1.23;;;33.90;46.50;;;;;;4874583;29;20982;-83
2021/03/09 01:05:52;;;;;;;7.27;1.23;;;33.80;47.00;;;;;;4864650;29;20504;-82
2021/03/09 01:08:19;;;;;;;5.68;1.10;;;33.60;51.60;;;;;;4876350;29;20395;-80
2021/03/09 01:10:46;;;;;;;7.60;1.38;;;33.80;48.00;;;;;;4877692;29;20989;-81
2021/03/09 01:13:13;;;;;;;5.53;1.20;;;33.90;49.20;;;;;;4859630;29;20418;-82
2021/03/09 01:15:40;;;;;;;4.45;1.30;;;34.00;49.20;;;;;;4876599;29;20383;-81
2021/03/09 01:18:07;;;;;;;6.32;1.50;;;34.00;46.50;;;;;;4875836;29;20391;-81
2021/03/09 01:20:34;;;;;;;8.32;1.90;;;33.00;52.00;;;;;;4875559;29;20814;-81
2021/03/09 01:23:01;;;;;;;7.20;1.85;;;32.00;53.90;;;;;;4872740;29;20772;-82
2021/03/09 01:25:28;;;;;;;8.23;1.88;;;30.80;58.50;;;;;;4874398;29;20403;-83
2021/03/09 01:27:55;;;;;;;12.68;2.00;;;30.10;61.60;;;;;;4873828;29;20418;-81
2021/03/09 01:30:22;;;;;;;9.27;1.90;;;29.60;63.00;;;;;;4875599;29;20387;-82
2021/03/09 01:32:49;;;;;;;5.13;1.98;;;29.30;67.40;;;;;;4875701;29;20887;-82
2021/03/09 01:35:16;;;;;;;7.22;2.05;;;29.20;65.00;;;;;;4875694;29;20903;-82
2021/03/09 01:37:43;;;;;;;10.65;2.08;;;28.90;64.90;;;;;;4874342;29;20398;-82
2021/03/09 01:40:12;;;;;;;8.00;1.85;;;29.00;66.90;;;;;;4875289;29;20403;-82
2021/03/09 01:42:39;;;;;;;5.93;1.70;;;29.10;65.30;;;;;;4875192;29;20419;-84
2021/03/09 01:45:07;;;;;;;6.28;2.17;;;29.00;64.40;;;;;;4875466;29;20417;-82
2021/03/09 01:47:41;;;;;;;4.97;1.83;;;29.00;64.80;;;;;;4874916;29;20898;-82
2021/03/09 01:50:10;;;;;;;7.72;2.15;;;28.80;64.40;;;;;;4875027;29;20429;-81
2021/03/09 01:52:37;;;;;;;8.27;2.13;;;28.80;64.10;;;;;;4874428;29;20899;-81
2021/03/09 01:55:09;;;;;;;11.43;3.13;;;29.00;66.40;;;;;;4874465;29;20431;-82
2021/03/09 01:57:37;;;;;;;11.35;2.85;;;28.90;72.60;;;;;;4875761;29;20450;-83
2021/03/09 02:00:09;;;;;;;12.05;3.50;;;28.60;73.60;;;;;;4875774;29;20756;-83
2021/03/09 02:02:36;;;;;;;11.13;3.00;;;28.00;76.30;;;;;;4875976;29;20407;-82
2021/03/09 02:05:08;;;;;;;11.80;3.10;;;27.80;80.40;;;;;;4875969;29;20399;-82
2021/03/09 02:07:36;;;;;;;9.80;3.20;;;27.80;78.10;;;;;;4876380;29;20390;-82
2021/03/09 02:10:07;;;;;;;13.20;3.50;;;27.70;79.00;;;;;;4877422;29;20530;-82
2021/03/09 02:13:09;;;;;;;11.77;3.60;;;27.30;81.50;;;;;;4876300;29;20376;-83
2021/03/09 02:15:42;;;;;;;12.23;3.50;;;27.30;82.90;;;;;;4875735;29;20843;-82
2021/03/09 02:18:12;;;;;;;13.63;3.67;;;27.30;85.60;;;;;;4875879;29;20486;-83
2021/03/09 02:21:17;;;;;;;12.38;3.97;;;27.30;85.60;;;;;;4890166;29;20754;-84
2021/03/09 02:24:05;;;;;;;14.88;3.80;;;27.20;86.50;;;;;;4870563;29;21040;-82
2021/03/09 02:26:51;;;;;;;10.77;3.70;;;27.00;88.10;;;;;;4867641;29;20405;-82
2021/03/09 02:29:39;;;;;;;11.93;3.47;;;27.00;90.50;;;;;;4874913;29;20395;-83
2021/03/09 02:32:10;;;;;;;12.27;4.07;;;27.00;89.10;;;;;;4873551;29;20399;-82
2021/03/09 02:34:52;;;;;;;15.00;3.70;;;26.90;90.10;;;;;;4875847;29;20886;-83
2021/03/09 02:37:20;;;;;;;10.57;3.67;;;26.90;90.50;;;;;;4878357;29;20403;-81
2021/03/09 02:39:49;;;;;;;8.95;3.50;;;26.90;90.90;;;;;;4878384;29;20762;-83
2021/03/09 02:42:28;;;;;;;12.80;3.95;;;26.80;91.80;;;;;;4878093;29;20398;-84
2021/03/09 02:45:01;;;;;;;13.07;4.03;;;26.60;92.70;;;;;;4871910;29;20404;-83
2021/03/09 02:47:30;;;;;;;15.15;4.07;;;26.60;93.40;;;;;;4859908;29;20383;-82
2021/03/09 02:49:59;;;;;;;12.73;4.20;;;26.70;93.40;;;;;;4867857;29;20486;-82
2021/03/09 02:52:28;;;;;;;14.95;4.38;;;26.70;94.10;;;;;;4861672;29;20398;-81
2021/03/09 02:54:57;;;;;;;13.00;3.80;;;26.70;93.10;;;;;;4888870;29;20402;-81
2021/03/09 02:57:26;;;;;;;13.05;3.63;;;26.60;93.80;;;;;;4878207;29;20799;-83
2021/03/09 02:59:54;;;;;;;11.18;4.22;;;26.60;93.10;;;;;;4876790;29;20399;-83
2021/03/09 03:02:22;;;;;;;9.85;3.88;;;26.40;94.80;;;;;;4877571;29;20505;-83
2021/03/09 03:04:50;;;;;;;13.10;3.85;;;26.40;94.10;;;;;;4876110;29;20426;-83
2021/03/09 03:07:18;;;;;;;10.67;3.73;;;26.20;94.30;;;;;;4876220;29;20497;-83
2021/03/09 03:09:47;;;;;;;9.20;3.58;;;26.20;94.60;;;;;;4875490;29;20430;-82
2021/03/09 03:12:15;;;;;;;7.93;3.30;;;26.30;94.40;;;;;;4876742;29;20427;-83
2021/03/09 03:14:44;;;;;;;10.48;3.70;;;26.60;95.00;;;;;;4875868;29;20502;-83
2021/03/09 03:17:14;;;;;;;9.73;3.97;;;26.70;93.30;;;;;;4876042;29;20429;-83
2021/03/09 03:19:42;;;;;;;12.65;4.03;;;26.70;95.10;;;;;;4877072;29;20414;-83
2021/03/09 03:22:11;;;;;;;15.40;4.45;;;26.60;94.20;;;;;;4875504;29;20429;-83
2021/03/09 03:24:38;;;;;;;15.65;4.40;;;26.50;94.20;;;;;;4876107;29;20494;-83
2021/03/09 03:27:07;;;;;;;8.55;3.80;;;26.40;94.10;;;;;;4876662;29;20498;-83
2021/03/09 03:29:34;;;;;;;11.90;4.13;;;26.50;93.50;;;;;;4877634;29;20395;-82
2021/03/09 03:32:04;;;;;;;14.73;4.43;;;26.50;94.00;;;;;;4874614;29;20506;-83
2021/03/09 03:34:31;;;;;;;11.82;4.32;;;26.40;93.70;;;;;;4876935;29;20489;-83
2021/03/09 03:36:58;;;;;;;13.13;4.63;;;26.50;93.50;;;;;;4874523;29;20851;-83
2021/03/09 03:39:26;;;;;;;8.68;3.90;;;26.60;94.00;;;;;;4874998;29;20422;-83
2021/03/09 03:41:54;;;;;;;15.38;4.43;;;26.70;93.40;;;;;;4876769;29;20942;-84
2021/03/09 03:44:21;;;;;;;14.35;4.53;;;26.30;94.20;;;;;;4876380;29;20470;-83
2021/03/09 03:46:48;;;;;;;15.32;4.68;;;26.00;95.40;;;;;;4876032;29;20402;-83
2021/03/09 03:49:15;;;;;;;11.32;4.03;;;26.00;95.60;;;;;;4876887;29;20486;-83
2021/03/09 03:51:46;;;;;;;13.48;4.63;;;25.80;96.00;;;;;;4877175;29;20363;-83
2021/03/09 03:54:57;;;;;;;12.63;4.27;;;25.80;96.10;;;;;;4876591;29;20399;-82
2021/03/09 03:57:32;;;;;;;12.77;4.13;;;25.90;95.50;;;;;;4804554;29;20448;-81
2021/03/09 04:00:04;;;;;;;15.02;4.57;;;26.00;96.00;;;;;;4818072;29;20512;-81
2021/03/09 04:02:31;;;;;;;12.88;3.80;;;26.30;95.50;;;;;;4854983;29;20415;-81
2021/03/09 04:04:58;;;;;;;14.90;4.28;;;26.30;95.70;;;;;;4875739;29;20391;-83
2021/03/09 04:07:27;;;;;;;13.35;3.75;;;26.10;95.10;;;;;;4874530;29;20403;-82
2021/03/09 04:09:56;;;;;;;13.98;4.53;;;26.10;95.30;;;;;;4874419;29;20435;-82
2021/03/09 04:12:27;;;;;;;18.33;4.78;;;25.90;95.50;;;;;;4875621;29;20411;-83
2021/03/09 04:14:58;;;;;;;14.73;4.18;;;25.60;96.40;;;;;;4876213;29;20386;-82
2021/03/09 04:17:26;;;;;;;14.07;3.90;;;25.60;96.00;;;;;;4876655;29;20755;-83
2021/03/09 04:19:55;;;;;;;12.17;4.00;;;25.50;96.20;;;;;;4876349;29;20751;-82
2021/03/09 04:22:25;;;;;;;19.27;3.90;;;25.40;96.40;;;;;;4875784;29;20538;-82
2021/03/09 04:24:53;;;;;;;16.88;4.63;;;25.40;96.50;;;;;;4873070;29;20395;-83
2021/03/09 04:27:21;;;;;;;18.55;4.18;;;25.50;96.70;;;;;;4875982;29;20921;-82
2021/03/09 04:29:59;;;;;;;15.38;4.38;;;25.40;97.10;;;;;;4876848;29;20391;-82
2021/03/09 04:32:27;;;;;;;15.25;4.13;;;25.60;96.60;;;;;;4875771;29;20399;-83
2021/03/09 04:34:55;;;;;;;14.10;4.00;;;25.50;97.00;;;;;;4874963;29;20991;-82
2021/03/09 04:37:23;;;;;;;19.05;4.50;;;25.20;96.90;;;;;;4874423;29;20505;-82
2021/03/09 04:39:50;;;;;;;15.27;3.95;;;25.00;97.80;;;;;;4875401;29;20415;-81
2021/03/09 04:42:17;;;;;;;18.00;4.28;;;25.00;97.80;;;;;;4875930;29;20410;-82
2021/03/09 04:44:44;;;;;;;18.20;4.18;;;25.00;98.10;;;;;;4874858;29;20771;-82
2021/03/09 04:47:11;;;;;;;14.93;3.80;;;25.00;98.00;;;;;;4874162;29;20409;-82
2021/03/09 04:49:38;;;;;;;18.55;4.30;;;25.00;98.20;;;;;;4876176;29;20523;-82
2021/03/09 04:52:06;;;;;;;16.02;3.80;;;25.10;98.30;;;;;;4871606;29;20399;-82
2021/03/09 04:54:34;;;;;;;16.48;4.45;;;25.20;98.10;;;;;;4875145;29;20535;-82
2021/03/09 04:57:01;;;;;;;11.32;3.67;;;25.00;99.10;;;;;;4872931;29;20422;-82
2021/03/09 04:59:28;;;;;;;18.05;4.35;;;24.90;99.00;;;;;;4870420;29;20523;-82
2021/03/09 05:01:55;;;;;;;17.25;4.03;;;24.60;99.80;;;;;;4873945;29;20426;-81
2021/03/09 05:04:22;;;;;;;20.40;4.38;;;24.40;99.90;;;;;;4874918;29;20497;-82
2021/03/09 05:06:49;;;;;;;20.38;4.05;;;24.30;99.90;;;;;;4872776;29;20883;-81
2021/03/09 05:09:16;;;;;;;24.23;4.72;;;24.10;99.90;;;;;;4874188;29;20419;-80
2021/03/09 05:11:43;;;;;;;18.90;4.32;;;23.90;99.90;;;;;;4875052;29;20426;-81
2021/03/09 05:14:10;;;;;;;21.90;4.57;;;23.80;99.90;;;;;;4875018;29;20763;-81
2021/03/09 05:16:37;;;;;;;15.80;3.75;;;23.80;99.90;;;;;;4875025;29;20807;-81
2021/03/09 05:19:04;;;;;;;18.77;3.95;;;23.70;99.90;;;;;;4875799;29;20435;-81
2021/03/09 05:21:31;;;;;;;21.08;4.50;;;23.60;99.90;;;;;;4882468;29;20425;-81
2021/03/09 05:23:58;;;;;;;19.55;4.72;;;23.50;99.90;;;;;;4894938;29;20475;-81
2021/03/09 05:26:27;;;;;;;18.50;4.43;;;23.40;99.90;;;;;;4880425;29;20410;-83
2021/03/09 05:28:56;;;;;;;21.25;4.25;;;23.30;99.90;;;;;;4875068;29;20434;-81
2021/03/09 05:31:23;;;;;;;20.88;4.53;;;23.20;99.90;;;;;;4871899;29;20466;-82
2021/03/09 05:33:50;;;;;;;19.97;4.33;;;23.30;99.90;;;;;;4872183;29;20407;-82
2021/03/09 05:36:17;;;;;;;22.87;4.33;;;23.30;99.90;;;;;;4876544;29;20465;-81
2021/03/09 05:38:44;;;;;;;20.92;4.43;;;23.20;99.90;;;;;;4874845;29;20394;-82
2021/03/09 05:41:11;;;;;;;21.07;4.20;;;23.10;99.90;;;;;;4874322;29;20390;-80
2021/03/09 05:43:39;;;;;;;19.08;4.20;;;23.00;99.90;;;;;;4874038;29;20423;-83
2021/03/09 05:46:06;;;;;;;23.33;5.10;;;22.90;99.90;;;;;;4875181;29;20499;-82
2021/03/09 05:48:33;;;;;;;21.25;4.28;;;22.70;99.90;;;;;;4876556;29;20868;-81
2021/03/09 05:51:00;;;;;;;17.83;4.43;;;22.60;99.90;;;;;;4874934;29;20856;-81
2021/03/09 05:53:28;;;;;;;18.00;4.20;;;22.70;99.90;;;;;;4857508;29;20447;-83
2021/03/09 05:55:55;;;;;;;20.70;5.05;;;22.80;99.90;;;;;;4873947;29;20744;-82
2021/03/09 05:58:21;;;;;;;22.35;4.43;;;22.80;99.90;;;;;;4874391;29;20407;-81
2021/03/09 06:00:49;;;;;;;21.50;4.60;;;22.80;99.90;;;;;;4874429;29;20398;-82
2021/03/09 06:03:16;;;;;;;18.25;4.20;;;22.80;99.90;;;;;;4874108;29;20490;-82
2021/03/09 06:05:43;;;;;;;20.17;4.38;;;22.80;99.90;;;;;;4874305;29;20388;-82
2021/03/09 06:08:10;;;;;;;22.85;4.57;;;22.80;99.90;;;;;;4875491;29;20519;-81
2021/03/09 06:10:37;;;;;;;22.25;5.10;;;22.90;99.90;;;;;;4879882;29;20410;-81
2021/03/09 06:13:04;;;;;;;18.27;5.03;;;23.10;99.90;;;;;;4880121;29;20466;-80
2021/03/09 06:15:31;;;;;;;17.10;4.32;;;23.10;99.90;;;;;;4880578;29;20401;-80
2021/03/09 06:17:59;;;;;;;21.27;5.60;;;22.90;99.90;;;;;;4879924;29;20411;-80
2021/03/09 06:20:31;;;;;;;19.27;4.10;;;22.80;99.90;;;;;;4880745;29;20402;-80
2021/03/09 06:22:59;;;;;;;14.75;4.15;;;22.80;99.90;;;;;;4888089;29;20417;-80
2021/03/09 06:25:28;;;;;;;18.60;4.22;;;22.80;99.90;;;;;;4880736;29;20391;-81
2021/03/09 06:28:01;;;;;;;17.47;3.87;;;22.70;99.90;;;;;;4880829;29;20858;-79
2021/03/09 06:30:30;;;;;;;19.10;4.43;;;22.70;99.90;;;;;;4876759;29;20407;-80
2021/03/09 06:32:58;;;;;;;18.48;4.07;;;22.60;99.90;;;;;;4872674;29;20387;-81
2021/03/09 06:35:29;;;;;;;21.40;4.38;;;22.60;99.90;;;;;;4879593;29;20429;-79
2021/03/09 06:38:16;;;;;;;21.23;4.43;;;22.40;99.90;;;;;;4880154;29;20481;-81
2021/03/09 06:40:44;;;;;;;22.07;4.53;;;22.40;99.90;;;;;;4880462;29;20399;-81
2021/03/09 06:43:18;;;;;;;16.42;4.10;;;22.30;99.90;;;;;;4880163;29;20422;-81
2021/03/09 06:45:45;;;;;;;17.95;4.10;;;22.30;99.90;;;;;;4879907;29;20401;-80
2021/03/09 06:48:22;;;;;;;15.35;3.70;;;22.40;99.90;;;;;;4877852;29;20418;-80
2021/03/09 06:50:49;;;;;;;16.50;3.92;;;22.40;99.90;;;;;;4880910;29;20779;-81
2021/03/09 06:53:43;;;;;;;13.02;3.15;;;22.30;99.90;;;;;;4871100;29;20422;-81
2021/03/09 06:56:26;;;;;;;15.60;3.92;;;22.30;99.90;;;;;;4879002;29;20977;-81
2021/03/09 06:58:53;;;;;;;21.63;4.25;;;22.40;99.90;;;;;;4879769;29;20402;-80
2021/03/09 07:01:21;;;;;;;19.13;4.37;;;22.30;99.90;;;;;;4885475;29;20799;-81
2021/03/09 07:03:48;;;;;;;16.42;4.05;;;22.10;99.90;;;;;;4879607;29;20418;-79
2021/03/09 07:06:15;;;;;;;17.05;3.67;;;22.10;99.90;;;;;;4880172;29;20395;-80
2021/03/09 07:08:42;;;;;;;18.45;3.92;;;21.90;99.90;;;;;;4879538;29;20906;-80
2021/03/09 07:11:09;;;;;;;17.65;4.22;;;21.90;99.90;;;;;;4878124;29;20875;-80
2021/03/09 07:13:40;;;;;;;18.07;4.07;;;21.90;99.90;;;;;;4877958;29;20816;-81
2021/03/09 07:16:07;;;;;;;17.67;4.05;;;21.80;99.90;;;;;;4877594;29;20414;-80
2021/03/09 07:18:34;;;;;;;17.25;3.65;;;21.80;99.90;;;;;;4879462;29;20415;-81
2021/03/09 07:21:02;;;;;;;21.38;4.13;;;21.70;99.90;;;;;;4877442;29;20410;-81
2021/03/09 07:23:31;;;;;;;14.70;3.58;;;21.70;99.90;;;;;;4875855;29;20441;-80
2021/03/09 07:26:05;;;;;;;16.30;3.53;;;21.70;99.90;;;;;;4876632;29;20383;-80
2021/03/09 07:28:38;;;;;;;18.13;3.60;;;21.70;99.90;;;;;;4876112;29;20410;-80
2021/03/09 07:31:07;;;;;;;16.23;3.53;;;21.80;99.90;;;;;;4873948;29;20407;-81
2021/03/09 07:33:35;;;;;;;20.63;4.07;;;21.80;99.90;;;;;;4876284;29;20399;-81
2021/03/09 07:36:06;;;;;;;19.25;4.07;;;21.80;99.90;;;;;;4878312;29;20415;-82
2021/03/09 07:38:33;;;;;;;18.83;3.42;;;21.80;99.90;;;;;;4877801;29;20507;-81
2021/03/09 07:41:01;;;;;;;15.25;3.78;;;21.80;99.90;;;;;;4879844;29;20408;-81
2021/03/09 07:43:28;;;;;;;15.60;3.45;;;21.80;99.90;;;;;;4875535;29;20431;-82
2021/03/09 07:45:56;;;;;;;15.85;3.80;;;21.70;99.90;;;;;;4877475;29;20850;-81
2021/03/09 07:48:25;;;;;;;19.98;4.25;;;21.70;99.90;;;;;;4876932;29;20461;-81
2021/03/09 07:50:52;;;;;;;17.40;3.53;;;21.70;99.90;;;;;;4881538;29;20462;-81
2021/03/09 07:53:22;;;;;;;15.18;3.88;;;21.60;99.90;;;;;;4883273;29;20902;-82
2021/03/09 07:56:20;;;;;;;13.65;3.47;;;21.60;99.90;;;;;;4879689;29;20401;-81
2021/03/09 07:59:06;;;;;;;15.60;3.53;;;21.50;99.90;;;;;;4860029;29;20587;-82
2021/03/09 08:01:46;;;;;;;17.42;3.65;;;21.60;99.90;;;;;;4878335;29;20895;-81
2021/03/09 08:04:14;;;;;;;19.17;3.60;;;21.50;99.90;;;;;;4877075;29;20475;-81
2021/03/09 08:06:45;;;;;;;20.97;3.90;;;21.50;99.90;;;;;;4889513;29;20409;-81
2021/03/09 08:09:34;;;;;;;16.70;3.47;;;21.40;99.90;;;;;;4895997;29;20389;-80
2021/03/09 08:12:02;;;;;;;15.25;3.33;;;21.40;99.90;;;;;;4873197;29;20747;-81
2021/03/09 08:14:29;;;;;;;18.60;3.65;;;21.40;99.90;;;;;;4858818;29;20400;-83
2021/03/09 08:16:56;;;;;;;18.50;3.97;;;21.40;99.90;;;;;;4866436;29;20442;-82
2021/03/09 08:19:26;;;;;;;19.10;3.83;;;21.40;99.90;;;;;;4874977;29;20435;-82
2021/03/09 08:22:01;;;;;;;18.00;3.65;;;21.30;99.90;;;;;;4880543;29;20405;-81
2021/03/09 08:24:43;;;;;;;17.33;3.30;;;21.30;99.90;;;;;;4882059;29;20423;-83
2021/03/09 08:27:28;;;;;;;17.13;3.65;;;21.30;99.90;;;;;;4876191;29;20435;-82
2021/03/09 08:30:18;;;;;;;12.70;3.20;;;21.30;99.90;;;;;;4878250;29;20398;-82
2021/03/09 08:32:45;;;;;;;17.00;3.72;;;21.30;99.90;;;;;;4876156;29;20402;-84
2021/03/09 08:35:15;;;;;;;18.90;4.45;;;21.30;99.90;;;;;;4878025;29;20418;-83
2021/03/09 08:37:50;;;;;;;13.98;3.35;;;21.30;99.90;;;;;;4878479;29;20421;-83
2021/03/09 08:40:22;;;;;;;18.03;3.70;;;21.30;99.90;;;;;;4878919;29;20399;-81
2021/03/09 08:43:04;;;;;;;16.80;3.30;;;21.30;99.90;;;;;;4877409;29;20418;-83
2021/03/09 08:45:37;;;;;;;15.20;3.17;;;21.30;99.90;;;;;;4878941;29;20386;-83
2021/03/09 08:48:06;;;;;;;14.15;3.67;;;21.20;99.90;;;;;;4868813;29;20396;-83
2021/03/09 08:50:41;;;;;;;21.90;3.80;;;21.20;99.90;;;;;;4860587;29;20407;-83
2021/03/09 08:53:27;;;;;;;16.02;3.40;;;21.20;99.90;;;;;;4869662;29;20445;-82
2021/03/09 08:55:58;;;;;;;17.77;3.85;;;21.20;99.90;;;;;;4867978;29;20393;-83
2021/03/09 08:58:25;;;;;;;17.45;3.70;;;21.20;99.90;;;;;;4864632;29;20434;-81
2021/03/09 09:00:53;;;;;;;16.63;3.70;;;21.20;99.90;;;;;;4874560;29;20407;-83
2021/03/09 09:03:37;;;;;;;19.20;4.07;;;21.20;99.90;;;;;;4877119;29;20418;-83
2021/03/09 09:06:05;;;;;;;20.83;4.30;;;21.20;99.90;;;;;;4874560;29;20417;-83
2021/03/09 09:08:32;;;;;;;19.80;3.92;;;21.20;99.90;;;;;;4873537;29;20507;-82
2021/03/09 09:11:00;;;;;;;18.40;3.42;;;21.20;99.90;;;;;;4873982;29;20915;-81
2021/03/09 09:13:31;;;;;;;23.63;4.57;;;21.10;99.90;;;;;;4875764;29;20462;-82
2021/03/09 09:15:59;;;;;;;20.20;4.50;;;21.10;99.90;;;;;;4870343;29;20405;-82
2021/03/09 09:18:27;;;;;;;19.40;4.05;;;21.00;99.90;;;;;;4871659;29;20482;-81
2021/03/09 09:20:55;;;;;;;18.02;3.90;;;21.00;99.90;;;;;;4875732;29;20567;-84
2021/03/09 09:23:30;;;;;;;19.77;4.07;;;21.00;99.90;;;;;;4876462;29;20423;-83
2021/03/09 09:26:00;;;;;;;18.00;3.80;;;21.00;99.90;;;;;;4875910;29;20398;-82
2021/03/09 09:28:31;;;;;;;23.67;4.47;;;21.00;99.90;;;;;;4875485;29;20438;-82
2021/03/09 09:31:22;;;;;;;14.38;3.85;;;21.00;99.90;;;;;;4875307;29;20399;-83
2021/03/09 09:33:50;;;;;;;20.30;4.25;;;21.00;99.90;;;;;;4874849;29;20411;-83
2021/03/09 09:36:18;;;;;;;16.27;4.10;;;21.10;99.90;;;;;;4875358;29;20403;-83
2021/03/09 09:38:53;;;;;;;16.00;3.60;;;21.10;99.90;;;;;;4874966;29;20863;-82
2021/03/09 09:41:21;;;;;;;18.13;3.70;;;21.10;99.90;;;;;;4874867;29;20930;-82
2021/03/09 09:43:48;;;;;;;18.55;4.00;;;21.10;99.90;;;;;;4874322;29;20429;-82
2021/03/09 09:46:24;;;;;;;16.73;4.07;;;21.10;99.90;;;;;;4873346;29;20505;-82
2021/03/09 09:48:52;;;;;;;15.15;3.55;;;21.10;99.90;;;;;;4875283;29;20399;-82
2021/03/09 09:51:22;;;;;;;15.70;3.40;;;21.10;99.90;;;;;;4873188;29;20440;-83
2021/03/09 09:53:51;;;;;;;16.10;3.73;;;21.10;99.90;;;;;;4864551;29;20523;-83
2021/03/09 09:56:18;;;;;;;18.85;3.85;;;21.00;99.90;;;;;;4873634;29;20466;-83
2021/03/09 09:59:02;;;;;;;17.75;3.75;;;21.00;99.90;;;;;;4887549;29;20430;-82
2021/03/09 10:01:38;;;;;;;16.05;3.10;;;21.00;99.90;;;;;;4872743;29;20727;-83
2021/03/09 10:04:06;;;;;;;20.20;4.05;;;21.00;99.90;;;;;;4866508;29;20911;-82
2021/03/09 10:07:13;;;;;;;21.00;3.95;;;20.90;99.90;;;;;;4871060;29;20440;-83
2021/03/09 10:09:40;;;;;;;22.08;4.10;;;20.90;99.90;;;;;;4870724;29;20425;-82
2021/03/09 10:12:08;;;;;;;26.88;4.13;;;20.90;99.90;;;;;;4871417;29;20402;-82
2021/03/09 10:14:51;;;;;;;19.00;3.63;;;20.90;99.90;;;;;;4867766;29;20538;-82
2021/03/09 10:17:20;;;;;;;17.98;3.92;;;20.90;99.90;;;;;;4865044;29;20395;-82
2021/03/09 10:19:47;;;;;;;19.17;3.60;;;20.90;99.90;;;;;;4864634;29;20515;-83
2021/03/09 10:22:23;;;;;;;19.90;4.25;;;20.80;99.90;;;;;;4867586;29;20422;-83
2021/03/09 10:24:50;;;;;;;18.27;3.90;;;20.80;99.90;;;;;;4871016;29;20465;-83
2021/03/09 10:27:23;;;;;;;19.63;3.90;;;20.80;99.90;;;;;;4869861;29;20407;-83
2021/03/09 10:29:56;;;;;;;18.77;3.60;;;20.80;99.90;;;;;;4864255;29;20430;-83
2021/03/09 10:32:23;;;;;;;16.83;3.80;;;20.80;99.90;;;;;;4868897;29;20481;-83
2021/03/09 10:34:57;;;;;;;23.88;4.28;;;20.80;99.90;;;;;;4872077;29;20840;-83
2021/03/09 10:37:37;;;;;;;20.25;3.80;;;20.80;99.90;;;;;;4870958;29;21105;-82
2021/03/09 10:40:09;;;;;;;16.30;3.40;;;20.80;99.90;;;;;;4871632;29;20407;-82
2021/03/09 10:42:49;;;;;;;18.73;3.67;;;20.80;99.90;;;;;;4870961;29;20462;-84
2021/03/09 10:45:24;;;;;;;18.40;3.58;;;20.80;99.90;;;;;;4870454;29;20489;-83
2021/03/09 10:47:53;;;;;;;17.03;3.83;;;20.80;99.90;;;;;;4871470;29;20907;-83
2021/03/09 10:50:24;;;;;;;17.67;3.60;;;20.80;99.90;;;;;;4857985;29;20495;-82
2021/03/09 10:52:52;;;;;;;19.15;4.30;;;20.80;99.90;;;;;;4867934;29;20974;-82
2021/03/09 10:55:19;;;;;;;20.13;3.80;;;20.80;99.90;;;;;;4873550;29;20451;-82
2021/03/09 10:57:46;;;;;;;14.25;3.30;;;20.80;99.90;;;;;;4874059;29;20426;-82
2021/03/09 11:00:16;;;;;;;19.42;3.67;;;20.70;99.90;;;;;;4875176;29;20413;-82
2021/03/09 11:02:44;;;;;;;13.98;3.80;;;20.70;99.90;;;;;;4875483;29;20418;-83
2021/03/09 11:05:12;;;;;;;15.63;3.28;;;20.70;99.90;;;;;;4875519;29;20405;-83
2021/03/09 11:07:40;;;;;;;17.20;3.67;;;20.70;99.90;;;;;;4875561;29;20486;-82
2021/03/09 11:10:10;;;;;;;21.85;4.10;;;20.80;99.90;;;;;;4874920;29;20486;-82
2021/03/09 11:12:38;;;;;;;19.13;3.63;;;20.70;99.90;;;;;;4875655;29;20406;-82
2021/03/09 11:15:06;;;;;;;16.43;3.90;;;20.70;99.90;;;;;;4874596;29;20411;-82
2021/03/09 11:17:34;;;;;;;20.17;4.13;;;20.70;99.90;;;;;;4873840;29;20403;-82
2021/03/09 11:20:01;;;;;;;16.27;3.77;;;20.70;99.90;;;;;;4867390;29;20517;-82
2021/03/09 11:22:28;;;;;;;21.02;4.47;;;20.70;99.90;;;;;;4886285;29;20423;-82
2021/03/09 11:24:55;;;;;;;16.35;3.55;;;20.70;99.90;;;;;;4873476;29;20441;-82
2021/03/09 11:27:22;;;;;;;19.05;3.78;;;20.70;99.90;;;;;;4874337;29;20403;-82
2021/03/09 11:29:49;;;;;;;19.20;3.65;;;20.80;99.90;;;;;;4872474;29;20500;-80
2021/03/09 11:32:16;;;;;;;19.08;4.07;;;20.80;99.90;;;;;;4873679;29;20402;-81
2021/03/09 11:34:43;;;;;;;23.33;4.28;;;20.80;99.90;;;;;;4873521;29;20474;-83
2021/03/09 11:37:12;;;;;;;16.33;3.70;;;20.80;99.90;;;;;;4874186;29;20433;-81
2021/03/09 11:39:39;;;;;;;21.40;3.92;;;20.80;99.90;;;;;;4873567;29;20415;-83
2021/03/09 11:42:06;;;;;;;21.67;4.18;;;20.70;99.90;;;;;;4874462;29;20407;-83
2021/03/09 11:44:33;;;;;;;18.88;4.03;;;20.80;99.90;;;;;;4876771;29;20784;-83
2021/03/09 11:47:00;;;;;;;22.55;4.05;;;20.70;99.90;;;;;;4877528;29;20395;-83
2021/03/09 11:49:27;;;;;;;17.45;3.85;;;20.70;99.90;;;;;;4869085;29;20429;-83
2021/03/09 11:51:54;;;;;;;18.83;3.63;;;20.70;99.90;;;;;;4877673;29;20399;-83
2021/03/09 11:54:21;;;;;;;18.25;3.88;;;20.80;99.90;;;;;;4880087;29;20408;-82
2021/03/09 11:56:48;;;;;;;19.50;3.50;;;20.80;99.90;;;;;;4879908;29;20383;-82
2021/03/09 11:59:15;;;;;;;17.77;3.92;;;20.70;99.90;;;;;;4857784;29;20444;-82
2021/03/09 12:01:42;;;;;;;13.93;3.05;;;20.70;99.90;;;;;;4877373;29;20391;-82
2021/03/09 12:04:09;;;;;;;16.60;3.67;;;20.70;99.90;;;;;;4877354;29;20779;-82
2021/03/09 12:06:36;;;;;;;17.27;3.22;;;20.70;99.90;;;;;;4859726;29;20502;-83
2021/03/09 12:09:04;;;;;;;14.25;3.10;;;20.60;99.90;;;;;;4876894;29;20406;-82
2021/03/09 12:11:31;;;;;;;16.35;3.53;;;20.50;99.90;;;;;;4875901;29;20440;-83
2021/03/09 12:13:57;;;;;;;16.13;3.45;;;20.50;99.90;;;;;;4877075;29;20387;-82
2021/03/09 12:16:24;;;;;;;16.67;3.83;;;20.50;99.90;;;;;;4877205;29;20391;-82
2021/03/09 12:18:51;;;;;;;16.60;3.65;;;20.50;99.90;;;;;;4877100;29;20891;-82
2021/03/09 12:21:18;;;;;;;20.08;3.35;;;20.40;99.90;;;;;;4876791;29;20435;-83
2021/03/09 12:23:45;;;;;;;15.75;3.65;;;20.40;99.90;;;;;;4876527;29;20461;-82
2021/03/09 12:26:12;;;;;;;18.80;3.40;;;20.40;99.90;;;;;;4876115;29;20435;-83
2021/03/09 12:28:39;;;;;;;18.58;3.83;;;20.30;99.90;;;;;;4875996;29;20407;-83
2021/03/09 12:31:06;;;;;;;15.48;3.90;;;20.20;99.90;;;;;;4877103;29;20406;-82
2021/03/09 12:33:34;;;;;;;16.77;3.50;;;20.20;99.90;;;;;;4876798;29;20903;-83
2021/03/09 12:36:02;;;;;;;16.27;3.03;;;20.20;99.90;;;;;;4876069;29;20415;-83
2021/03/09 12:38:29;;;;;;;16.00;3.45;;;20.20;99.90;;;;;;4875766;29;20403;-83
2021/03/09 12:40:57;;;;;;;19.95;3.65;;;20.20;99.90;;;;;;4876390;29;20391;-83
2021/03/09 12:43:24;;;;;;;17.17;3.13;;;20.20;99.90;;;;;;4874804;29;20525;-83
2021/03/09 12:45:51;;;;;;;18.00;3.70;;;20.20;99.90;;;;;;4872839;29;20414;-83
2021/03/09 12:48:18;;;;;;;13.18;2.90;;;20.10;99.90;;;;;;4869843;29;20517;-82
2021/03/09 12:50:45;;;;;;;16.45;3.55;;;20.20;99.90;;;;;;4874830;29;20410;-82
2021/03/09 12:53:12;;;;;;;17.77;3.45;;;20.20;99.90;;;;;;4875882;29;20406;-82